createdAt,value
2017-07-01T00:00:29.693Z,19.31
2017-07-01T00:01:10.105Z,19.4
2017-07-01T00:01:50.526Z,19.43
2017-07-01T00:02:30.976Z,19.4
2017-07-01T00:03:11.504Z,19.39
2017-07-01T00:03:51.935Z,19.41
2017-07-01T00:04:32.414Z,19.36
2017-07-01T00:05:12.913Z,19.41
2017-07-01T00:05:53.375Z,19.46
2017-07-01T00:06:33.881Z,19.43
2017-07-01T00:07:14.306Z,19.47
2017-07-01T00:08:51.728Z,19.39
2017-07-01T00:09:32.235Z,18.92
2017-07-01T00:10:12.699Z,19.36
2017-07-01T00:10:53.174Z,19.37
2017-07-01T00:11:33.665Z,19.26
2017-07-01T00:12:14.101Z,19.08
2017-07-01T00:12:54.545Z,19.21
2017-07-01T00:13:35.011Z,19.19
2017-07-01T00:14:15.463Z,19.1
2017-07-01T00:14:55.917Z,19.18
2017-07-01T00:15:36.346Z,18.82
2017-07-01T00:16:16.790Z,18.75
2017-07-01T00:16:57.289Z,19.22
2017-07-01T00:17:37.744Z,19.22
2017-07-01T00:18:18.172Z,19.22
2017-07-01T00:18:58.697Z,19.25
2017-07-01T00:19:39.171Z,19.23
2017-07-01T00:20:19.586Z,19.31
2017-07-01T00:21:00.039Z,19.25
2017-07-01T00:21:40.489Z,19.28
2017-07-01T00:22:20.963Z,19.36
2017-07-01T00:23:01.424Z,19.31
2017-07-01T00:23:41.841Z,19.33
2017-07-01T00:24:22.338Z,19.33
2017-07-01T00:25:02.780Z,19.28
2017-07-01T00:25:43.201Z,19.28
2017-07-01T00:26:23.666Z,19.31
2017-07-01T00:27:04.158Z,19.32
2017-07-01T00:27:44.566Z,19.36
2017-07-01T00:28:25.024Z,19.32
2017-07-01T00:29:05.451Z,19.28
2017-07-01T00:29:45.885Z,19.37
2017-07-01T00:30:26.317Z,19.29
2017-07-01T00:31:06.751Z,19.33
2017-07-01T00:31:47.202Z,19.32
2017-07-01T00:32:27.626Z,19.31
2017-07-01T00:34:04.979Z,19.23
2017-07-01T00:34:45.426Z,19.21
2017-07-01T00:35:25.889Z,19.22
2017-07-01T00:36:06.402Z,19.21
2017-07-01T00:36:46.865Z,19.22
2017-07-01T00:37:27.364Z,19.26
2017-07-01T00:38:07.882Z,19.25
2017-07-01T00:38:48.288Z,19.25
2017-07-01T00:39:28.853Z,19.16
2017-07-01T00:40:09.309Z,19.16
2017-07-01T00:40:49.811Z,19.21
2017-07-01T00:41:30.295Z,19.25
2017-07-01T00:42:10.722Z,19.28
2017-07-01T00:42:51.173Z,19.23
2017-07-01T00:43:31.638Z,19.19
2017-07-01T00:44:12.093Z,19.19
2017-07-01T00:44:52.572Z,19.23
2017-07-01T00:45:33.093Z,19.23
2017-07-01T00:46:13.529Z,19.25
2017-07-01T00:46:53.984Z,19.26
2017-07-01T00:47:34.433Z,19.14
2017-07-01T00:49:21.999Z,19.25
2017-07-01T00:50:02.440Z,19.23
2017-07-01T00:50:42.962Z,19.25
2017-07-01T00:51:23.353Z,19.14
2017-07-01T00:52:03.780Z,19.14
2017-07-01T00:52:44.251Z,19.23
2017-07-01T00:53:24.707Z,19.22
2017-07-01T00:54:05.134Z,19.22
2017-07-01T00:55:42.517Z,19.22
2017-07-01T00:56:23.011Z,19.22
2017-07-01T00:57:03.482Z,19.19
2017-07-01T00:57:43.926Z,19.22
2017-07-01T00:58:24.398Z,19.26
2017-07-01T00:59:04.901Z,19.21
2017-07-01T00:59:45.413Z,19.21
2017-07-01T01:00:25.915Z,19.19
2017-07-01T01:01:06.310Z,19.21
2017-07-01T01:01:46.764Z,19.22
2017-07-01T01:02:27.285Z,19.22
2017-07-01T01:03:07.735Z,19.25
2017-07-01T01:03:48.220Z,19.25
2017-07-01T01:04:28.658Z,19.08
2017-07-01T01:05:09.133Z,19.21
2017-07-01T01:05:49.572Z,19.25
2017-07-01T01:06:30.030Z,19.18
2017-07-01T01:07:10.461Z,19.28
2017-07-01T01:07:50.904Z,19.25
2017-07-01T01:08:31.423Z,19.22
2017-07-01T01:09:11.984Z,19.23
2017-07-01T01:09:52.519Z,19.11
2017-07-01T01:10:32.944Z,19.18
2017-07-01T01:11:13.408Z,19.11
2017-07-01T01:11:53.873Z,19.08
2017-07-01T01:12:34.298Z,18.95
2017-07-01T01:13:14.772Z,19.13
2017-07-01T01:13:55.219Z,19.16
2017-07-01T01:14:35.691Z,19.21
2017-07-01T01:15:16.135Z,19.14
2017-07-01T01:15:56.605Z,19.13
2017-07-01T01:16:37.055Z,19.04
2017-07-01T01:17:17.512Z,19.04
2017-07-01T01:17:57.968Z,19
2017-07-01T01:18:38.543Z,19
2017-07-01T01:19:18.966Z,18.91
2017-07-01T01:19:59.406Z,18.84
2017-07-01T01:20:39.903Z,18.91
2017-07-01T01:21:20.303Z,18.95
2017-07-01T01:22:00.792Z,19
2017-07-01T01:22:41.245Z,19.04
2017-07-01T01:23:21.666Z,18.92
2017-07-01T01:24:02.091Z,18.98
2017-07-01T01:24:42.552Z,19.02
2017-07-01T01:25:22.986Z,19.02
2017-07-01T01:26:03.439Z,19
2017-07-01T01:26:43.884Z,18.99
2017-07-01T01:27:24.393Z,18.94
2017-07-01T01:28:04.848Z,19
2017-07-01T01:28:45.319Z,18.98
2017-07-01T01:29:25.776Z,18.95
2017-07-01T01:30:06.193Z,18.88
2017-07-01T01:30:46.684Z,18.85
2017-07-01T01:31:27.122Z,18.94
2017-07-01T01:32:07.546Z,18.85
2017-07-01T01:32:48.005Z,18.92
2017-07-01T01:33:28.461Z,18.92
2017-07-01T01:34:09.020Z,18.91
2017-07-01T01:34:49.330Z,18.8
2017-07-01T01:35:29.844Z,18.76
2017-07-01T01:36:10.297Z,18.8
2017-07-01T01:36:50.746Z,18.91
2017-07-01T01:37:31.201Z,18.85
2017-07-01T01:39:23.787Z,18.9
2017-07-01T01:40:04.436Z,18.81
2017-07-01T01:40:44.863Z,18.82
2017-07-01T01:41:25.291Z,18.82
2017-07-01T01:42:05.707Z,18.92
2017-07-01T01:42:46.179Z,18.87
2017-07-01T01:43:26.629Z,18.82
2017-07-01T01:44:07.060Z,18.81
2017-07-01T01:44:47.547Z,18.85
2017-07-01T01:45:27.949Z,18.81
2017-07-01T01:46:08.382Z,18.84
2017-07-01T01:46:48.837Z,18.82
2017-07-01T01:47:29.279Z,18.8
2017-07-01T01:48:09.733Z,18.73
2017-07-01T01:48:50.205Z,18.8
2017-07-01T01:49:30.635Z,18.76
2017-07-01T01:51:23.279Z,18.84
2017-07-01T01:52:03.714Z,18.78
2017-07-01T01:52:44.191Z,18.85
2017-07-01T01:53:24.619Z,18.8
2017-07-01T01:54:05.042Z,18.8
2017-07-01T01:54:45.499Z,18.66
2017-07-01T01:55:25.908Z,18.81
2017-07-01T01:56:06.368Z,18.72
2017-07-01T01:56:46.826Z,18.78
2017-07-01T01:57:27.229Z,18.7
2017-07-01T01:58:07.737Z,18.7
2017-07-01T01:58:48.157Z,18.78
2017-07-01T01:59:28.616Z,18.82
2017-07-01T02:00:09.064Z,18.73
2017-07-01T02:00:49.500Z,18.73
2017-07-01T02:01:29.985Z,18.76
2017-07-01T02:02:10.434Z,18.81
2017-07-01T02:02:50.859Z,18.75
2017-07-01T02:03:31.298Z,18.8
2017-07-01T02:04:11.767Z,18.73
2017-07-01T02:04:52.213Z,18.8
2017-07-01T02:05:32.662Z,18.8
2017-07-01T02:06:13.086Z,18.78
2017-07-01T02:06:53.556Z,18.63
2017-07-01T02:07:33.988Z,18.67
2017-07-01T02:08:14.391Z,18.63
2017-07-01T02:08:54.886Z,18.69
2017-07-01T02:09:35.374Z,18.73
2017-07-01T02:10:15.827Z,18.7
2017-07-01T02:10:56.287Z,18.63
2017-07-01T02:11:36.706Z,18.73
2017-07-01T02:12:17.156Z,18.76
2017-07-01T02:12:57.581Z,18.72
2017-07-01T02:13:38.021Z,18.76
2017-07-01T02:14:18.456Z,18.7
2017-07-01T02:14:58.898Z,18.76
2017-07-01T02:15:39.330Z,18.67
2017-07-01T02:16:19.857Z,18.73
2017-07-01T02:17:00.277Z,18.72
2017-07-01T02:17:40.660Z,18.72
2017-07-01T02:18:21.133Z,18.6
2017-07-01T02:19:01.585Z,18.67
2017-07-01T02:19:42.050Z,18.58
2017-07-01T02:20:22.519Z,18.66
2017-07-01T02:21:02.969Z,18.7
2017-07-01T02:21:43.409Z,18.67
2017-07-01T02:22:23.804Z,18.67
2017-07-01T02:23:04.218Z,18.63
2017-07-01T02:23:44.661Z,18.6
2017-07-01T02:24:25.187Z,18.63
2017-07-01T02:25:05.646Z,18.6
2017-07-01T02:25:46.076Z,18.58
2017-07-01T02:26:26.573Z,18.54
2017-07-01T02:27:07.016Z,18.62
2017-07-01T02:27:47.484Z,18.6
2017-07-01T02:28:27.941Z,18.66
2017-07-01T02:29:08.412Z,18.58
2017-07-01T02:29:48.876Z,18.62
2017-07-01T02:30:29.351Z,18.58
2017-07-01T02:31:09.770Z,18.69
2017-07-01T02:31:50.266Z,18.58
2017-07-01T02:32:30.700Z,18.63
2017-07-01T02:33:11.149Z,18.63
2017-07-01T02:33:51.571Z,18.6
2017-07-01T02:34:32.017Z,18.66
2017-07-01T02:35:12.475Z,18.54
2017-07-01T02:35:52.946Z,18.51
2017-07-01T02:36:33.368Z,18.45
2017-07-01T02:37:13.797Z,18.44
2017-07-01T02:37:54.341Z,18.37
2017-07-01T02:38:34.770Z,18.33
2017-07-01T02:39:15.228Z,18.42
2017-07-01T02:39:55.727Z,18.33
2017-07-01T02:40:36.142Z,18.37
2017-07-01T02:41:16.600Z,18.29
2017-07-01T02:41:57.079Z,18.45
2017-07-01T02:42:37.521Z,18.45
2017-07-01T02:43:17.967Z,18.45
2017-07-01T02:43:58.423Z,18.45
2017-07-01T02:44:38.865Z,18.39
2017-07-01T02:45:19.354Z,18.32
2017-07-01T02:47:11.918Z,18.41
2017-07-01T02:47:52.331Z,18.35
2017-07-01T02:48:32.745Z,18.33
2017-07-01T02:49:13.188Z,18.23
2017-07-01T02:49:53.625Z,18.26
2017-07-01T02:50:34.070Z,18.2
2017-07-01T02:51:14.513Z,18.18
2017-07-01T02:51:54.982Z,18.27
2017-07-01T02:52:35.420Z,18.29
2017-07-01T02:53:15.885Z,18.23
2017-07-01T02:53:56.327Z,18.25
2017-07-01T02:54:36.796Z,18.14
2017-07-01T02:55:17.258Z,18.25
2017-07-01T02:55:57.716Z,18.26
2017-07-01T02:56:38.113Z,18.2
2017-07-01T02:57:18.541Z,18.18
2017-07-01T02:57:58.982Z,18.08
2017-07-01T02:58:39.492Z,18.11
2017-07-01T02:59:19.925Z,18.03
2017-07-01T03:00:00.351Z,18
2017-07-01T03:00:40.749Z,18.12
2017-07-01T03:01:21.241Z,18.1
2017-07-01T03:02:01.692Z,18
2017-07-01T03:02:42.159Z,18.03
2017-07-01T03:03:22.608Z,18.11
2017-07-01T03:04:03.026Z,17.95
2017-07-01T03:04:43.464Z,17.87
2017-07-01T03:05:23.943Z,17.89
2017-07-01T03:06:04.450Z,17.87
2017-07-01T03:06:44.869Z,17.82
2017-07-01T03:07:25.341Z,17.77
2017-07-01T03:08:05.912Z,17.56
2017-07-01T03:08:46.419Z,17.64
2017-07-01T03:09:26.863Z,17.59
2017-07-01T03:10:07.321Z,17.56
2017-07-01T03:10:47.780Z,17.52
2017-07-01T03:11:28.217Z,17.51
2017-07-01T03:12:08.705Z,17.56
2017-07-01T03:12:49.170Z,17.55
2017-07-01T03:13:29.620Z,17.58
2017-07-01T03:14:10.050Z,17.48
2017-07-01T03:14:50.482Z,17.51
2017-07-01T03:15:30.928Z,17.59
2017-07-01T03:16:11.402Z,17.54
2017-07-01T03:17:48.776Z,17.59
2017-07-01T03:18:29.218Z,17.56
2017-07-01T03:19:09.682Z,17.59
2017-07-01T03:19:50.142Z,17.48
2017-07-01T03:20:30.609Z,17.49
2017-07-01T03:21:11.057Z,17.46
2017-07-01T03:21:51.506Z,17.36
2017-07-01T03:22:31.974Z,17.36
2017-07-01T03:23:12.436Z,17.23
2017-07-01T03:23:52.857Z,17.28
2017-07-01T03:24:33.287Z,17.4
2017-07-01T03:25:13.709Z,17.25
2017-07-01T03:27:01.246Z,17.38
2017-07-01T03:27:41.772Z,17.25
2017-07-01T03:28:22.259Z,17.19
2017-07-01T03:29:02.685Z,17.26
2017-07-01T03:29:43.130Z,17.22
2017-07-01T03:30:23.561Z,17.15
2017-07-01T03:31:03.963Z,17.19
2017-07-01T03:32:56.552Z,17.19
2017-07-01T03:33:37.008Z,17.33
2017-07-01T03:34:17.441Z,17.37
2017-07-01T03:34:57.901Z,17.25
2017-07-01T03:35:38.385Z,17.12
2017-07-01T03:36:18.816Z,17.03
2017-07-01T03:36:59.281Z,17.01
2017-07-01T03:37:39.715Z,16.89
2017-07-01T03:38:20.178Z,16.91
2017-07-01T03:39:00.614Z,16.81
2017-07-01T03:39:41.041Z,16.71
2017-07-01T03:40:21.543Z,16.67
2017-07-01T03:41:01.978Z,16.66
2017-07-01T03:41:42.421Z,16.5
2017-07-01T03:42:22.867Z,16.63
2017-07-01T03:43:03.283Z,16.67
2017-07-01T03:43:43.699Z,16.63
2017-07-01T03:44:24.172Z,16.63
2017-07-01T03:45:04.599Z,16.63
2017-07-01T03:45:45.066Z,16.57
2017-07-01T03:46:25.510Z,16.6
2017-07-01T03:47:05.982Z,16.53
2017-07-01T03:47:46.427Z,16.56
2017-07-01T03:49:44.087Z,16.33
2017-07-01T03:50:24.533Z,16.3
2017-07-01T03:51:04.990Z,16.25
2017-07-01T03:51:45.410Z,16.17
2017-07-01T03:52:25.853Z,16.09
2017-07-01T03:53:06.293Z,16.17
2017-07-01T03:53:46.771Z,16.11
2017-07-01T03:54:27.234Z,16.08
2017-07-01T03:55:07.704Z,16.15
2017-07-01T03:55:48.140Z,16.09
2017-07-01T03:56:28.594Z,16.01
2017-07-01T03:57:09.011Z,16.05
2017-07-01T03:57:49.570Z,16.09
2017-07-01T03:58:29.924Z,16.08
2017-07-01T03:59:10.414Z,16.04
2017-07-01T03:59:50.841Z,16.09
2017-07-01T04:00:31.277Z,16.14
2017-07-01T04:01:11.729Z,16.09
2017-07-01T04:01:52.247Z,16.14
2017-07-01T04:02:32.691Z,16.12
2017-07-01T04:03:13.108Z,16.2
2017-07-01T04:03:53.559Z,16.12
2017-07-01T04:04:33.982Z,16.15
2017-07-01T04:05:14.410Z,16.11
2017-07-01T04:05:54.838Z,16.08
2017-07-01T04:06:35.358Z,16.11
2017-07-01T04:07:16.530Z,15.97
2017-07-01T04:07:56.954Z,15.96
2017-07-01T04:08:37.409Z,16
2017-07-01T04:09:17.846Z,15.97
2017-07-01T04:09:58.277Z,15.96
2017-07-01T04:10:38.738Z,15.97
2017-07-01T04:11:19.204Z,16.01
2017-07-01T04:11:59.635Z,15.96
2017-07-01T04:12:40.072Z,15.84
2017-07-01T04:13:20.551Z,15.84
2017-07-01T04:14:01.004Z,15.92
2017-07-01T04:14:41.433Z,15.84
2017-07-01T04:15:21.899Z,15.86
2017-07-01T04:16:02.422Z,15.86
2017-07-01T04:16:42.863Z,15.86
2017-07-01T04:17:23.281Z,15.89
2017-07-01T04:18:03.793Z,15.84
2017-07-01T04:18:44.214Z,15.93
2017-07-01T04:19:24.680Z,15.87
2017-07-01T04:20:05.135Z,15.83
2017-07-01T04:20:45.591Z,15.87
2017-07-01T04:21:26.050Z,15.87
2017-07-01T04:22:06.475Z,15.84
2017-07-01T04:22:46.940Z,15.84
2017-07-01T04:23:27.421Z,15.92
2017-07-01T04:24:07.884Z,15.82
2017-07-01T04:24:48.403Z,15.87
2017-07-01T04:25:28.862Z,15.84
2017-07-01T04:26:09.325Z,15.76
2017-07-01T04:26:49.742Z,15.86
2017-07-01T04:27:30.423Z,15.86
2017-07-01T04:28:11.018Z,15.84
2017-07-01T04:28:51.529Z,15.89
2017-07-01T04:29:31.970Z,15.86
2017-07-01T04:30:12.450Z,15.86
2017-07-01T04:30:53.238Z,15.93
2017-07-01T04:31:33.682Z,15.87
2017-07-01T04:32:14.134Z,15.86
2017-07-01T04:32:54.609Z,15.83
2017-07-01T04:33:35.022Z,15.87
2017-07-01T04:34:15.485Z,15.87
2017-07-01T04:34:55.984Z,15.94
2017-07-01T04:35:36.484Z,15.89
2017-07-01T04:36:16.890Z,15.96
2017-07-01T04:36:57.372Z,15.84
2017-07-01T04:37:37.923Z,15.9
2017-07-01T04:38:18.300Z,15.89
2017-07-01T04:40:05.777Z,15.89
2017-07-01T04:40:46.231Z,15.84
2017-07-01T04:41:26.665Z,15.84
2017-07-01T04:42:07.097Z,15.92
2017-07-01T04:42:47.542Z,15.82
2017-07-01T04:43:27.979Z,15.89
2017-07-01T04:44:08.450Z,15.87
2017-07-01T04:44:48.890Z,15.94
2017-07-01T04:45:29.337Z,15.89
2017-07-01T04:46:09.810Z,15.86
2017-07-01T04:46:50.208Z,15.87
2017-07-01T04:47:30.654Z,15.87
2017-07-01T04:48:11.124Z,15.78
2017-07-01T04:48:51.586Z,15.93
2017-07-01T04:49:32.056Z,15.84
2017-07-01T04:50:12.475Z,15.86
2017-07-01T04:50:52.996Z,15.89
2017-07-01T04:51:33.431Z,15.76
2017-07-01T04:52:13.907Z,15.83
2017-07-01T04:52:54.381Z,15.84
2017-07-01T04:53:34.793Z,15.83
2017-07-01T04:54:15.262Z,15.86
2017-07-01T04:54:55.679Z,15.87
2017-07-01T04:55:36.139Z,15.78
2017-07-01T04:56:16.624Z,15.84
2017-07-01T04:56:57.135Z,15.87
2017-07-01T04:57:37.617Z,15.92
2017-07-01T04:58:18.005Z,15.94
2017-07-01T04:58:58.528Z,15.93
2017-07-01T04:59:38.948Z,15.84
2017-07-01T05:01:51.682Z,15.87
2017-07-01T05:02:32.148Z,15.86
2017-07-01T05:03:12.613Z,15.87
2017-07-01T05:03:53.081Z,15.92
2017-07-01T05:04:33.539Z,15.87
2017-07-01T05:05:13.997Z,15.92
2017-07-01T05:07:11.663Z,15.97
2017-07-01T05:07:52.108Z,16.01
2017-07-01T05:08:32.605Z,16.04
2017-07-01T05:09:13.095Z,16.02
2017-07-01T05:09:53.553Z,16.04
2017-07-01T05:10:34.037Z,15.97
2017-07-01T05:11:14.513Z,15.93
2017-07-01T05:11:55.015Z,16
2017-07-01T05:12:35.489Z,16.01
2017-07-01T05:13:15.972Z,15.96
2017-07-01T05:13:56.446Z,15.97
2017-07-01T05:14:36.913Z,16
2017-07-01T05:15:17.378Z,16.07
2017-07-01T05:15:57.815Z,16.05
2017-07-01T05:17:55.486Z,16.04
2017-07-01T05:18:35.891Z,16.08
2017-07-01T05:19:16.372Z,16.04
2017-07-01T05:19:56.824Z,16.08
2017-07-01T05:20:37.220Z,16.08
2017-07-01T05:21:17.678Z,16.08
2017-07-01T05:21:58.129Z,16.09
2017-07-01T05:22:38.629Z,16.14
2017-07-01T05:23:19.040Z,16.21
2017-07-01T05:23:59.496Z,16.17
2017-07-01T05:24:39.922Z,16.21
2017-07-01T05:25:20.353Z,16.14
2017-07-01T05:26:00.781Z,16.2
2017-07-01T05:26:41.288Z,16.2
2017-07-01T05:27:21.764Z,16.17
2017-07-01T05:28:02.221Z,16.25
2017-07-01T05:28:42.709Z,16.21
2017-07-01T05:29:23.138Z,16.21
2017-07-01T05:31:00.483Z,16.28
2017-07-01T05:31:40.981Z,16.38
2017-07-01T05:32:21.490Z,16.38
2017-07-01T05:33:01.981Z,16.35
2017-07-01T05:33:42.505Z,16.34
2017-07-01T05:34:22.978Z,16.3
2017-07-01T05:35:03.471Z,16.31
2017-07-01T05:36:40.827Z,16.33
2017-07-01T05:37:21.472Z,16.38
2017-07-01T05:38:01.940Z,16.02
2017-07-01T05:38:42.413Z,16.17
2017-07-01T05:39:22.911Z,16.35
2017-07-01T05:40:03.377Z,16.46
2017-07-01T05:40:43.870Z,16.48
2017-07-01T05:41:24.339Z,16.5
2017-07-01T05:42:04.759Z,16.73
2017-07-01T05:42:45.199Z,16.61
2017-07-01T05:43:25.610Z,16.64
2017-07-01T05:44:06.050Z,16.73
2017-07-01T05:44:46.497Z,16.67
2017-07-01T05:45:26.919Z,16.68
2017-07-01T05:46:07.363Z,16.75
2017-07-01T05:46:47.842Z,16.7
2017-07-01T05:47:28.304Z,16.67
2017-07-01T05:48:08.723Z,16.7
2017-07-01T05:48:49.177Z,16.71
2017-07-01T05:49:29.684Z,16.75
2017-07-01T05:50:10.087Z,16.73
2017-07-01T05:50:50.509Z,16.75
2017-07-01T05:51:30.979Z,16.76
2017-07-01T05:52:11.465Z,16.64
2017-07-01T05:52:51.922Z,16.81
2017-07-01T05:53:32.356Z,16.81
2017-07-01T05:54:12.794Z,16.94
2017-07-01T05:54:53.228Z,17.03
2017-07-01T05:55:33.709Z,17.03
2017-07-01T05:56:14.160Z,16.91
2017-07-01T05:56:54.618Z,16.78
2017-07-01T05:57:35.037Z,16.91
2017-07-01T05:58:15.492Z,16.89
2017-07-01T05:58:55.940Z,16.93
2017-07-01T05:59:36.409Z,16.96
2017-07-01T06:00:16.902Z,16.89
2017-07-01T06:00:57.375Z,16.97
2017-07-01T06:01:37.844Z,17.03
2017-07-01T06:02:18.234Z,17.12
2017-07-01T06:02:58.690Z,17.15
2017-07-01T06:03:39.167Z,17.21
2017-07-01T06:04:19.570Z,17.03
2017-07-01T06:05:00.042Z,17.14
2017-07-01T06:05:40.576Z,17.04
2017-07-01T06:06:20.921Z,17.12
2017-07-01T06:07:01.356Z,17.12
2017-07-01T06:07:41.839Z,17.06
2017-07-01T06:08:22.593Z,16.96
2017-07-01T06:09:03.055Z,16.81
2017-07-01T06:09:43.485Z,16.94
2017-07-01T06:10:23.981Z,16.93
2017-07-01T06:12:01.356Z,17
2017-07-01T06:12:41.803Z,17
2017-07-01T06:13:22.260Z,17.06
2017-07-01T06:14:02.730Z,17.23
2017-07-01T06:14:43.138Z,17.38
2017-07-01T06:15:23.596Z,17.46
2017-07-01T06:16:04.038Z,17.41
2017-07-01T06:18:16.811Z,17.59
2017-07-01T06:18:57.260Z,17.77
2017-07-01T06:19:37.684Z,17.72
2017-07-01T06:20:18.156Z,17.72
2017-07-01T06:20:58.686Z,17.63
2017-07-01T06:21:39.079Z,17.49
2017-07-01T06:22:19.533Z,17.51
2017-07-01T06:22:59.984Z,17.51
2017-07-01T06:23:40.441Z,17.56
2017-07-01T06:24:20.893Z,17.37
2017-07-01T06:25:01.321Z,17.43
2017-07-01T06:25:41.779Z,17.43
2017-07-01T06:26:22.231Z,17.44
2017-07-01T06:27:02.664Z,17.43
2017-07-01T06:27:43.121Z,17.52
2017-07-01T06:28:23.583Z,17.64
2017-07-01T06:29:04.042Z,17.66
2017-07-01T06:29:44.484Z,17.68
2017-07-01T06:30:24.925Z,17.78
2017-07-01T06:31:05.405Z,17.79
2017-07-01T06:31:45.813Z,17.81
2017-07-01T06:32:26.261Z,17.95
2017-07-01T06:33:06.693Z,17.99
2017-07-01T06:33:47.149Z,17.93
2017-07-01T06:34:27.619Z,17.9
2017-07-01T06:35:08.056Z,18.11
2017-07-01T06:35:48.557Z,17.89
2017-07-01T06:36:29.002Z,18.03
2017-07-01T06:37:09.493Z,17.97
2017-07-01T06:39:22.201Z,18.17
2017-07-01T06:40:02.644Z,18.11
2017-07-01T06:40:43.121Z,18.08
2017-07-01T06:41:23.591Z,18.25
2017-07-01T06:42:04.015Z,18.5
2017-07-01T06:42:44.454Z,18.54
2017-07-01T06:43:24.894Z,18.52
2017-07-01T06:45:02.271Z,18.69
2017-07-01T06:45:42.749Z,18.69
2017-07-01T06:46:23.275Z,18.6
2017-07-01T06:47:03.732Z,18.62
2017-07-01T06:47:44.218Z,18.6
2017-07-01T06:48:24.682Z,18.73
2017-07-01T06:49:05.165Z,18.73
2017-07-01T06:49:45.634Z,18.85
2017-07-01T06:50:26.265Z,18.82
2017-07-01T06:51:06.725Z,18.99
2017-07-01T06:51:47.195Z,19.02
2017-07-01T06:52:27.636Z,19.06
2017-07-01T06:53:08.135Z,19.02
2017-07-01T06:53:48.559Z,18.95
2017-07-01T06:54:28.977Z,18.72
2017-07-01T06:55:09.442Z,18.67
2017-07-01T06:55:49.885Z,18.69
2017-07-01T06:56:30.315Z,18.66
2017-07-01T06:57:10.782Z,18.9
2017-07-01T06:57:51.240Z,18.92
2017-07-01T06:58:31.898Z,18.99
2017-07-01T06:59:12.349Z,19.06
2017-07-01T06:59:52.797Z,19.04
2017-07-01T07:00:33.216Z,19.18
2017-07-01T07:01:13.668Z,19.13
2017-07-01T07:01:54.093Z,19.07
2017-07-01T07:02:34.530Z,18.81
2017-07-01T07:03:14.982Z,18.85
2017-07-01T07:03:55.386Z,18.72
2017-07-01T07:04:35.815Z,18.78
2017-07-01T07:05:16.266Z,18.95
2017-07-01T07:05:56.779Z,19.26
2017-07-01T07:06:37.285Z,19.28
2017-07-01T07:07:17.776Z,19.21
2017-07-01T07:07:58.184Z,19.28
2017-07-01T07:08:38.612Z,19.33
2017-07-01T07:09:19.119Z,19.28
2017-07-01T07:09:59.548Z,19.48
2017-07-01T07:10:40.032Z,19.59
2017-07-01T07:11:20.406Z,19.69
2017-07-01T07:12:00.882Z,19.86
2017-07-01T07:12:41.350Z,19.98
2017-07-01T07:13:21.849Z,20.16
2017-07-01T07:14:02.224Z,20.33
2017-07-01T07:14:42.657Z,20.5
2017-07-01T07:15:23.089Z,20.35
2017-07-01T07:16:03.564Z,20.38
2017-07-01T07:16:44.113Z,20.28
2017-07-01T07:17:24.527Z,20.38
2017-07-01T07:18:04.969Z,20.23
2017-07-01T07:18:45.417Z,20.05
2017-07-01T07:19:25.902Z,20.26
2017-07-01T07:21:38.646Z,20.69
2017-07-01T07:22:19.099Z,20.57
2017-07-01T07:22:59.546Z,20.59
2017-07-01T07:23:40.026Z,20.84
2017-07-01T07:24:20.469Z,20.69
2017-07-01T07:25:00.922Z,20.62
2017-07-01T07:25:41.654Z,20.8
2017-07-01T07:26:22.060Z,21.07
2017-07-01T07:27:02.534Z,21.28
2017-07-01T07:27:42.946Z,21.14
2017-07-01T07:28:23.386Z,21.28
2017-07-01T07:29:03.995Z,21.24
2017-07-01T07:29:44.440Z,21.31
2017-07-01T07:30:24.856Z,20.95
2017-07-01T07:31:05.356Z,20.95
2017-07-01T07:33:02.986Z,21.8
2017-07-01T07:33:43.476Z,22
2017-07-01T07:34:23.945Z,22.27
2017-07-01T07:35:04.409Z,22.31
2017-07-01T07:35:44.840Z,22.39
2017-07-01T07:36:25.286Z,22.36
2017-07-01T07:37:05.789Z,22.2
2017-07-01T07:37:46.260Z,22.37
2017-07-01T07:38:26.716Z,22.43
2017-07-01T07:39:07.250Z,22.55
2017-07-01T07:39:47.667Z,22.4
2017-07-01T07:40:28.131Z,21.72
2017-07-01T07:41:08.636Z,21.94
2017-07-01T07:41:49.041Z,22.17
2017-07-01T07:42:29.594Z,22.27
2017-07-01T07:43:10.019Z,22.36
2017-07-01T07:43:50.464Z,22.49
2017-07-01T07:44:30.912Z,22.54
2017-07-01T07:45:11.370Z,22.6
2017-07-01T07:45:51.829Z,22.55
2017-07-01T07:46:32.305Z,22.62
2017-07-01T07:47:12.765Z,22.02
2017-07-01T07:47:53.205Z,21.4
2017-07-01T07:48:33.659Z,21.29
2017-07-01T07:49:14.120Z,21.22
2017-07-01T07:49:54.592Z,21.19
2017-07-01T07:50:35.050Z,21.43
2017-07-01T07:51:15.502Z,21.44
2017-07-01T07:51:55.945Z,20.62
2017-07-01T07:52:36.488Z,20.72
2017-07-01T07:53:16.951Z,20.91
2017-07-01T07:53:57.411Z,20.91
2017-07-01T07:54:37.873Z,21.14
2017-07-01T07:55:18.332Z,21.25
2017-07-01T07:55:58.767Z,21.09
2017-07-01T07:56:39.225Z,20.94
2017-07-01T07:57:19.651Z,20.98
2017-07-01T07:58:00.107Z,21.29
2017-07-01T07:58:40.567Z,21.16
2017-07-01T07:59:21.040Z,21.14
2017-07-01T08:00:01.506Z,21.34
2017-07-01T08:00:41.981Z,21.28
2017-07-01T08:01:22.466Z,20.98
2017-07-01T08:02:02.919Z,20.98
2017-07-01T08:02:43.340Z,21.09
2017-07-01T08:03:23.791Z,21.12
2017-07-01T08:04:04.196Z,20.92
2017-07-01T08:04:44.681Z,20.67
2017-07-01T08:05:25.129Z,20.92
2017-07-01T08:06:05.588Z,21.07
2017-07-01T08:06:46.026Z,21.42
2017-07-01T08:07:26.469Z,21.84
2017-07-01T08:08:06.906Z,22.35
2017-07-01T08:08:47.356Z,22.09
2017-07-01T08:09:27.825Z,21.99
2017-07-01T08:10:08.259Z,21.96
2017-07-01T08:10:48.691Z,22.14
2017-07-01T08:11:29.162Z,22.07
2017-07-01T08:12:09.603Z,21.91
2017-07-01T08:12:50.040Z,22.02
2017-07-01T08:13:30.442Z,22.17
2017-07-01T08:14:10.883Z,22.36
2017-07-01T08:14:51.289Z,22.33
2017-07-01T08:15:31.772Z,22.31
2017-07-01T08:16:12.235Z,22.58
2017-07-01T08:16:52.804Z,22.46
2017-07-01T08:17:33.271Z,22.47
2017-07-01T08:18:13.684Z,22.61
2017-07-01T08:18:54.173Z,22.46
2017-07-01T08:19:34.696Z,22.52
2017-07-01T08:20:15.170Z,22.52
2017-07-01T08:22:02.655Z,22.4
2017-07-01T08:22:43.204Z,22.27
2017-07-01T08:23:23.574Z,22.37
2017-07-01T08:24:04.037Z,22.17
2017-07-01T08:24:44.503Z,22.17
2017-07-01T08:25:24.941Z,22.03
2017-07-01T08:26:05.398Z,21.91
2017-07-01T08:26:45.838Z,21.86
2017-07-01T08:27:26.295Z,21.72
2017-07-01T08:28:06.741Z,21.75
2017-07-01T08:28:47.220Z,21.46
2017-07-01T08:29:27.789Z,21.65
2017-07-01T08:30:08.229Z,21.64
2017-07-01T08:30:48.691Z,21.61
2017-07-01T08:31:29.138Z,21.43
2017-07-01T08:32:09.535Z,21.14
2017-07-01T08:33:57.057Z,20.85
2017-07-01T08:34:37.524Z,20.94
2017-07-01T08:35:17.983Z,21.06
2017-07-01T08:35:58.488Z,21.06
2017-07-01T08:36:38.941Z,21.29
2017-07-01T08:37:19.430Z,21.21
2017-07-01T08:37:59.929Z,21.22
2017-07-01T08:38:40.426Z,21.28
2017-07-01T08:39:20.902Z,21.13
2017-07-01T08:40:01.330Z,21.07
2017-07-01T08:40:41.764Z,20.79
2017-07-01T08:41:22.265Z,20.77
2017-07-01T08:42:02.754Z,20.92
2017-07-01T08:42:43.198Z,20.89
2017-07-01T08:43:23.632Z,20.94
2017-07-01T08:44:04.063Z,21.12
2017-07-01T08:44:44.489Z,20.92
2017-07-01T08:45:24.912Z,20.97
2017-07-01T08:46:05.369Z,20.82
2017-07-01T08:46:45.845Z,20.79
2017-07-01T08:47:26.351Z,20.72
2017-07-01T08:48:06.790Z,20.64
2017-07-01T08:48:47.305Z,20.8
2017-07-01T08:49:27.750Z,20.84
2017-07-01T08:50:08.264Z,20.69
2017-07-01T08:50:48.731Z,20.55
2017-07-01T08:51:29.185Z,20.67
2017-07-01T08:52:09.618Z,20.57
2017-07-01T08:52:50.040Z,20.42
2017-07-01T08:53:30.528Z,20.5
2017-07-01T08:54:10.965Z,20.61
2017-07-01T08:54:51.388Z,20.42
2017-07-01T08:55:31.837Z,20.21
2017-07-01T08:57:29.804Z,19.5
2017-07-01T08:58:10.287Z,19.59
2017-07-01T08:58:50.721Z,19.61
2017-07-01T08:59:31.193Z,19.51
2017-07-01T09:00:11.650Z,19.54
2017-07-01T09:00:52.135Z,19.41
2017-07-01T09:01:32.678Z,19.63
2017-07-01T09:02:13.194Z,19.48
2017-07-01T09:02:53.690Z,19.47
2017-07-01T09:03:34.149Z,19.39
2017-07-01T09:04:14.588Z,19.44
2017-07-01T09:04:55.029Z,19.59
2017-07-01T09:06:42.671Z,19.76
2017-07-01T09:07:23.216Z,19.91
2017-07-01T09:08:03.775Z,19.99
2017-07-01T09:08:44.237Z,19.86
2017-07-01T09:09:24.846Z,19.99
2017-07-01T09:10:05.300Z,19.94
2017-07-01T09:10:45.781Z,20.1
2017-07-01T09:11:26.206Z,20.16
2017-07-01T09:12:06.658Z,20.08
2017-07-01T09:12:47.105Z,20.16
2017-07-01T09:13:27.549Z,20.28
2017-07-01T09:14:08.091Z,20.35
2017-07-01T09:14:48.645Z,20.28